Aarschot, Belgium
Current Conditions -  °F | °C
As of 5:03 AM on Monday 26 Jan 2015 (Local Time) from EBDT Reporting Station
Broken Clouds Broken Clouds  
Wind Chill: 31°   Ceiling: 400
Heat Index: 37°   Visibility: 1.4mi
Dew Point: 37°   Wind: 8mph
Humidity: 100%   Direction: 200°SSW
Pressure: 30.21"   Gusts: NA
Location:  50.99°N, 4.84°E
Report Text: EBDT 260403Z AUTO 20007KT 2300 SCT002/// BKN004/// 03/03 Q1023 AMB
Loading
Personal Weather Stations






























Interactive Weather Map New forecast layout! Learn more

10-Day Weather Forecast

Advertisements
Track Severe Weather on mobile